createdAt,value
2023-03-18T00:04:47.682Z,10.00
2023-03-18T00:10:50.965Z,10.40
2023-03-18T00:16:52.712Z,10.60
2023-03-18T00:22:55.634Z,10.60
2023-03-18T00:28:58.535Z,10.60
2023-03-18T00:35:01.531Z,10.30
2023-03-18T00:41:12.664Z,10.20
2023-03-18T00:47:14.407Z,10.20
2023-03-18T00:53:16.957Z,10.10
2023-03-18T00:59:21.778Z,10.00
2023-03-18T01:05:25.391Z,10.00
2023-03-18T01:11:29.146Z,9.70
2023-03-18T01:17:31.925Z,9.50
2023-03-18T01:23:34.320Z,9.30
2023-03-18T01:29:36.252Z,9.30
2023-03-18T01:35:41.212Z,9.10
2023-03-18T01:41:45.097Z,9.20
2023-03-18T01:47:51.937Z,9.20
2023-03-18T01:53:57.690Z,9.30
2023-03-18T02:00:01.671Z,9.30
2023-03-18T02:06:05.034Z,9.40
2023-03-18T02:12:12.673Z,9.60
2023-03-18T02:18:20.056Z,9.70
2023-03-18T02:24:34.512Z,9.90
2023-03-18T02:30:47.665Z,10.10
2023-03-18T02:36:51.010Z,10.10
2023-03-18T02:42:52.907Z,10.30
2023-03-18T02:48:56.059Z,10.40
2023-03-18T02:54:59.289Z,10.60
2023-03-18T03:01:04.631Z,10.60
2023-03-18T03:07:06.809Z,10.70
2023-03-18T03:13:22.193Z,10.60
2023-03-18T03:19:24.967Z,10.50
2023-03-18T03:25:27.494Z,10.20
2023-03-18T03:31:29.400Z,10.00
2023-03-18T03:37:32.278Z,9.90
2023-03-18T03:43:34.059Z,9.70
2023-03-18T03:49:35.952Z,9.30
2023-03-18T03:55:38.011Z,9.00
2023-03-18T04:01:40.699Z,8.90
2023-03-18T04:07:44.224Z,8.80
2023-03-18T04:13:47.467Z,8.80
2023-03-18T04:19:50.556Z,8.70
2023-03-18T04:25:53.712Z,8.70
2023-03-18T04:31:56.981Z,8.90
2023-03-18T04:38:00.913Z,9.00
2023-03-18T04:44:04.476Z,9.10
2023-03-18T04:50:15.429Z,9.30
2023-03-18T04:56:18.177Z,9.50
2023-03-18T05:02:25.388Z,9.60
2023-03-18T05:08:28.077Z,9.60
2023-03-18T05:14:32.435Z,9.40
2023-03-18T05:20:36.471Z,9.20
2023-03-18T05:26:40.193Z,9.20
2023-03-18T05:32:44.221Z,9.20
2023-03-18T05:38:50.621Z,9.20
2023-03-18T05:44:53.212Z,9.10
2023-03-18T05:50:58.875Z,9.00
2023-03-18T05:57:04.737Z,8.90
2023-03-18T06:03:07.791Z,9.00
2023-03-18T06:09:12.316Z,8.90
2023-03-18T06:15:17.774Z,9.00
2023-03-18T06:21:21.399Z,8.80
2023-03-18T06:27:24.369Z,8.90
2023-03-18T06:33:31.473Z,8.90
2023-03-18T06:39:34.930Z,9.20
2023-03-18T06:45:40.897Z,9.50
2023-03-18T06:51:44.726Z,9.80
2023-03-18T06:57:48.374Z,10.10
2023-03-18T07:03:55.125Z,10.50
2023-03-18T07:09:57.450Z,10.90
2023-03-18T07:16:00.709Z,11.30
2023-03-18T07:22:03.691Z,11.50
2023-03-18T07:28:08.506Z,11.60
2023-03-18T07:34:11.709Z,11.40
2023-03-18T07:40:14.960Z,11.60
2023-03-18T07:46:17.412Z,11.90
2023-03-18T07:52:20.445Z,11.70
2023-03-18T07:58:23.044Z,11.60
2023-03-18T08:04:25.662Z,11.50
2023-03-18T08:10:31.641Z,11.60
2023-03-18T08:16:33.863Z,11.80
2023-03-18T08:22:37.139Z,12.20
2023-03-18T08:28:39.959Z,12.20
2023-03-18T08:34:42.959Z,12.40
2023-03-18T08:40:46.932Z,12.60
2023-03-18T08:46:49.817Z,12.80
2023-03-18T08:52:52.400Z,13.30
2023-03-18T08:58:55.103Z,13.60
2023-03-18T09:04:57.697Z,13.70
2023-03-18T09:11:00.445Z,13.60
2023-03-18T09:17:02.896Z,13.70
2023-03-18T09:23:05.283Z,13.90
2023-03-18T09:29:07.731Z,14.20
2023-03-18T09:35:13.416Z,14.40
2023-03-18T09:41:45.918Z,14.40
2023-03-18T09:48:22.658Z,14.60
2023-03-18T09:54:34.200Z,15.20
2023-03-18T10:00:38.597Z,15.80
2023-03-18T10:06:44.289Z,15.90
2023-03-18T10:12:55.649Z,16.00
2023-03-18T10:18:58.199Z,16.10
2023-03-18T10:25:27.679Z,16.20
2023-03-18T10:32:02.760Z,16.10
2023-03-18T10:38:29.768Z,16.20
2023-03-18T10:44:41.414Z,16.50
2023-03-18T10:50:57.718Z,16.20
2023-03-18T10:57:01.572Z,15.90
2023-03-18T11:03:09.048Z,16.00
2023-03-18T11:09:16.659Z,15.90
2023-03-18T11:15:23.169Z,15.80
2023-03-18T11:21:26.958Z,15.50
2023-03-18T11:27:35.934Z,15.50
2023-03-18T11:33:39.134Z,15.50
2023-03-18T11:39:42.136Z,15.80
2023-03-18T11:45:50.167Z,16.30
2023-03-18T11:52:06.632Z,16.30
2023-03-18T11:58:41.024Z,16.60
2023-03-18T12:04:52.414Z,16.30
2023-03-18T12:11:06.491Z,16.50
2023-03-18T12:17:36.138Z,17.10
2023-03-18T12:23:59.409Z,17.00
2023-03-18T12:30:15.322Z,17.10
2023-03-18T12:36:30.136Z,17.20
2023-03-18T12:42:54.560Z,17.20
2023-03-18T12:49:11.695Z,17.70
2023-03-18T12:55:29.232Z,18.20
2023-03-18T13:01:36.959Z,17.80
2023-03-18T13:07:46.000Z,18.10
2023-03-18T13:13:54.420Z,18.30
2023-03-18T13:20:01.956Z,18.70
2023-03-18T13:26:09.976Z,19.10
2023-03-18T13:32:48.309Z,19.30
2023-03-18T13:39:10.098Z,19.40
2023-03-18T13:45:28.525Z,19.90
2023-03-18T13:51:30.322Z,20.30
2023-03-18T13:57:46.824Z,20.30
2023-03-18T14:03:48.769Z,20.20
2023-03-18T14:10:18.225Z,20.00
2023-03-18T14:16:37.645Z,19.50
2023-03-18T14:22:39.790Z,19.00
2023-03-18T14:28:48.066Z,18.80
2023-03-18T14:34:59.022Z,18.60
2023-03-18T14:41:03.304Z,18.60
2023-03-18T14:47:20.628Z,18.80
2023-03-18T14:53:34.753Z,18.70
2023-03-18T14:59:36.570Z,18.60
2023-03-18T15:05:42.372Z,18.40
2023-03-18T15:11:46.676Z,18.30
2023-03-18T15:17:49.319Z,18.30
2023-03-18T15:23:53.951Z,18.00
2023-03-18T15:30:01.612Z,17.70
2023-03-18T15:36:14.969Z,17.40
2023-03-18T15:42:21.552Z,17.30
2023-03-18T15:48:42.186Z,17.20
2023-03-18T15:54:47.800Z,17.20
2023-03-18T16:00:50.682Z,17.10
2023-03-18T16:06:53.675Z,17.10
2023-03-18T16:13:01.001Z,17.10
2023-03-18T16:19:02.770Z,17.10
2023-03-18T16:25:05.015Z,17.40
2023-03-18T16:31:07.058Z,17.70
2023-03-18T16:37:26.954Z,18.70
2023-03-18T16:43:33.856Z,19.70
2023-03-18T16:49:37.262Z,19.90
2023-03-18T16:55:39.029Z,19.10
2023-03-18T17:01:43.658Z,17.90
2023-03-18T17:07:45.906Z,16.80
2023-03-18T17:13:48.728Z,15.80
2023-03-18T17:19:50.512Z,14.80
2023-03-18T17:26:00.225Z,14.00
2023-03-18T17:32:02.607Z,13.30
2023-03-18T17:38:04.524Z,12.90
2023-03-18T17:44:28.354Z,12.40
2023-03-18T17:50:31.450Z,12.10
2023-03-18T17:56:35.271Z,11.90
2023-03-18T18:02:40.211Z,11.90
2023-03-18T18:08:41.957Z,11.70
2023-03-18T18:14:44.316Z,11.70
2023-03-18T18:20:47.898Z,11.70
2023-03-18T18:26:50.700Z,11.90
2023-03-18T18:32:52.478Z,11.90
2023-03-18T18:38:57.329Z,11.90
2023-03-18T18:45:00.309Z,11.90
2023-03-18T18:51:04.244Z,11.90
2023-03-18T18:57:10.408Z,11.80
2023-03-18T19:03:17.761Z,11.70
2023-03-18T19:09:23.669Z,11.50
2023-03-18T19:15:26.266Z,11.40
2023-03-18T19:21:28.069Z,11.20
2023-03-18T19:27:32.360Z,11.10
2023-03-18T19:33:34.125Z,10.80
2023-03-18T19:39:36.487Z,10.70
2023-03-18T19:45:38.305Z,10.70
2023-03-18T19:51:40.145Z,10.60
2023-03-18T19:57:48.106Z,10.40
2023-03-18T20:03:55.479Z,10.30
2023-03-18T20:10:00.249Z,10.30
2023-03-18T20:16:02.116Z,10.30
2023-03-18T20:22:04.061Z,10.30
2023-03-18T20:28:11.732Z,10.30
2023-03-18T20:34:14.614Z,10.30
2023-03-18T20:40:28.560Z,10.10
2023-03-18T20:46:31.372Z,10.10
2023-03-18T20:52:33.929Z,10.10
2023-03-18T20:58:36.894Z,10.10
2023-03-18T21:04:39.683Z,10.20
2023-03-18T21:10:42.657Z,10.30
2023-03-18T21:16:45.207Z,10.60
2023-03-18T21:22:48.506Z,10.90
2023-03-18T21:28:53.072Z,10.90
2023-03-18T21:34:55.840Z,10.80
2023-03-18T21:41:02.110Z,10.90
2023-03-18T21:47:03.956Z,11.10
2023-03-18T21:53:07.081Z,11.30
2023-03-18T21:59:08.870Z,11.40
2023-03-18T22:05:14.536Z,11.70
2023-03-18T22:11:18.699Z,11.70
2023-03-18T22:17:29.511Z,11.60
2023-03-18T22:23:32.224Z,11.60
2023-03-18T22:29:33.980Z,11.40
2023-03-18T22:35:36.181Z,11.20
2023-03-18T22:41:38.225Z,11.00
2023-03-18T22:47:40.104Z,10.90
2023-03-18T22:53:44.570Z,10.80
2023-03-18T22:59:46.478Z,10.70
2023-03-18T23:05:50.472Z,10.60
2023-03-18T23:11:52.297Z,10.50
2023-03-18T23:17:54.026Z,10.40
2023-03-18T23:23:56.888Z,10.40
2023-03-18T23:29:58.659Z,10.40
2023-03-18T23:36:00.555Z,10.40
2023-03-18T23:42:02.398Z,10.40
2023-03-18T23:48:04.663Z,10.40
2023-03-18T23:54:08.149Z,10.30
